sensor_id;sensor_type;location;lat;lon;timestamp;P1;durP1;ratioP1;P2;durP2;ratioP2
60030;SDS011;45901;47.600;9.890;2022-07-29T00:01:36;1.80;;;1.10;;
60030;SDS011;45901;47.600;9.890;2022-07-29T00:04:03;1.63;;;0.90;;
60030;SDS011;45901;47.600;9.890;2022-07-29T00:06:30;3.27;;;1.23;;
60030;SDS011;45901;47.600;9.890;2022-07-29T00:08:57;2.50;;;1.30;;
60030;SDS011;45901;47.600;9.890;2022-07-29T00:11:24;4.53;;;2.10;;
60030;SDS011;45901;47.600;9.890;2022-07-29T00:13:51;2.97;;;1.63;;
60030;SDS011;45901;47.600;9.890;2022-07-29T00:16:19;2.13;;;1.37;;
60030;SDS011;45901;47.600;9.890;2022-07-29T00:18:47;2.80;;;1.60;;
60030;SDS011;45901;47.600;9.890;2022-07-29T00:21:14;2.30;;;1.40;;
60030;SDS011;45901;47.600;9.890;2022-07-29T00:23:42;2.53;;;1.43;;
60030;SDS011;45901;47.600;9.890;2022-07-29T00:26:09;1.53;;;1.13;;
60030;SDS011;45901;47.600;9.890;2022-07-29T00:28:36;2.30;;;1.20;;
60030;SDS011;45901;47.600;9.890;2022-07-29T00:31:03;2.33;;;1.30;;
60030;SDS011;45901;47.600;9.890;2022-07-29T00:33:30;1.43;;;1.10;;
60030;SDS011;45901;47.600;9.890;2022-07-29T00:36:01;2.20;;;1.40;;
60030;SDS011;45901;47.600;9.890;2022-07-29T00:38:27;2.43;;;1.30;;
60030;SDS011;45901;47.600;9.890;2022-07-29T00:40:54;2.37;;;1.53;;
60030;SDS011;45901;47.600;9.890;2022-07-29T00:43:22;1.83;;;1.10;;
60030;SDS011;45901;47.600;9.890;2022-07-29T00:45:49;1.10;;;1.00;;
60030;SDS011;45901;47.600;9.890;2022-07-29T00:48:16;2.47;;;1.33;;
60030;SDS011;45901;47.600;9.890;2022-07-29T00:50:43;1.97;;;1.33;;
60030;SDS011;45901;47.600;9.890;2022-07-29T00:53:12;1.73;;;1.20;;
60030;SDS011;45901;47.600;9.890;2022-07-29T00:55:39;2.37;;;1.60;;
60030;SDS011;45901;47.600;9.890;2022-07-29T00:58:06;2.57;;;1.20;;
60030;SDS011;45901;47.600;9.890;2022-07-29T01:00:34;2.77;;;1.30;;
60030;SDS011;45901;47.600;9.890;2022-07-29T01:03:01;3.40;;;1.23;;
60030;SDS011;45901;47.600;9.890;2022-07-29T01:05:29;2.00;;;1.27;;
60030;SDS011;45901;47.600;9.890;2022-07-29T01:07:57;1.60;;;1.23;;
60030;SDS011;45901;47.600;9.890;2022-07-29T01:10:26;1.97;;;0.93;;
60030;SDS011;45901;47.600;9.890;2022-07-29T01:12:54;1.53;;;0.90;;
60030;SDS011;45901;47.600;9.890;2022-07-29T01:15:25;1.27;;;1.10;;
60030;SDS011;45901;47.600;9.890;2022-07-29T01:17:55;1.67;;;1.17;;
60030;SDS011;45901;47.600;9.890;2022-07-29T01:20:31;2.13;;;1.40;;
60030;SDS011;45901;47.600;9.890;2022-07-29T01:23:39;4.83;;;1.37;;
60030;SDS011;45901;47.600;9.890;2022-07-29T01:26:35;1.53;;;1.03;;
60030;SDS011;45901;47.600;9.890;2022-07-29T01:29:13;2.70;;;1.13;;
60030;SDS011;45901;47.600;9.890;2022-07-29T01:32:05;1.90;;;1.20;;
60030;SDS011;45901;47.600;9.890;2022-07-29T01:34:40;2.93;;;1.27;;
60030;SDS011;45901;47.600;9.890;2022-07-29T01:37:15;0.90;;;0.80;;
60030;SDS011;45901;47.600;9.890;2022-07-29T01:39:47;2.37;;;1.27;;
60030;SDS011;45901;47.600;9.890;2022-07-29T01:42:20;1.80;;;1.20;;
60030;SDS011;45901;47.600;9.890;2022-07-29T01:44:56;3.97;;;1.27;;
60030;SDS011;45901;47.600;9.890;2022-07-29T01:47:28;3.23;;;1.40;;
60030;SDS011;45901;47.600;9.890;2022-07-29T01:50:04;1.80;;;1.50;;
60030;SDS011;45901;47.600;9.890;2022-07-29T01:52:38;1.47;;;1.20;;
60030;SDS011;45901;47.600;9.890;2022-07-29T01:55:12;1.90;;;1.40;;
60030;SDS011;45901;47.600;9.890;2022-07-29T01:57:42;2.63;;;1.50;;
60030;SDS011;45901;47.600;9.890;2022-07-29T02:00:14;1.50;;;1.20;;
60030;SDS011;45901;47.600;9.890;2022-07-29T02:02:43;1.80;;;1.20;;
60030;SDS011;45901;47.600;9.890;2022-07-29T02:05:14;12.73;;;1.67;;
60030;SDS011;45901;47.600;9.890;2022-07-29T02:07:46;1.97;;;1.17;;
60030;SDS011;45901;47.600;9.890;2022-07-29T02:10:15;2.60;;;1.60;;
60030;SDS011;45901;47.600;9.890;2022-07-29T02:12:46;2.10;;;1.57;;
60030;SDS011;45901;47.600;9.890;2022-07-29T02:15:16;2.07;;;1.37;;
60030;SDS011;45901;47.600;9.890;2022-07-29T02:17:45;9.00;;;1.57;;
60030;SDS011;45901;47.600;9.890;2022-07-29T02:20:19;7.47;;;1.73;;
60030;SDS011;45901;47.600;9.890;2022-07-29T02:22:48;1.80;;;1.40;;
60030;SDS011;45901;47.600;9.890;2022-07-29T02:25:18;1.40;;;1.30;;
60030;SDS011;45901;47.600;9.890;2022-07-29T02:27:47;3.40;;;1.43;;
60030;SDS011;45901;47.600;9.890;2022-07-29T02:30:17;2.17;;;1.70;;
60030;SDS011;45901;47.600;9.890;2022-07-29T02:32:46;1.60;;;1.50;;
60030;SDS011;45901;47.600;9.890;2022-07-29T02:35:15;0.80;;;0.80;;
60030;SDS011;45901;47.600;9.890;2022-07-29T02:37:43;2.57;;;1.10;;
60030;SDS011;45901;47.600;9.890;2022-07-29T02:40:32;1.70;;;1.30;;
60030;SDS011;45901;47.600;9.890;2022-07-29T02:43:01;2.07;;;1.33;;
60030;SDS011;45901;47.600;9.890;2022-07-29T02:45:32;1.20;;;0.90;;
60030;SDS011;45901;47.600;9.890;2022-07-29T02:48:00;1.40;;;1.03;;
60030;SDS011;45901;47.600;9.890;2022-07-29T02:50:34;2.53;;;1.00;;
60030;SDS011;45901;47.600;9.890;2022-07-29T02:53:08;2.17;;;1.30;;
60030;SDS011;45901;47.600;9.890;2022-07-29T02:55:43;1.67;;;1.30;;
60030;SDS011;45901;47.600;9.890;2022-07-29T02:58:15;1.60;;;1.20;;
60030;SDS011;45901;47.600;9.890;2022-07-29T03:00:54;1.73;;;1.03;;
60030;SDS011;45901;47.600;9.890;2022-07-29T03:03:25;1.63;;;1.40;;
60030;SDS011;45901;47.600;9.890;2022-07-29T03:05:59;1.50;;;1.33;;
60030;SDS011;45901;47.600;9.890;2022-07-29T03:08:27;2.80;;;1.20;;
60030;SDS011;45901;47.600;9.890;2022-07-29T03:10:56;3.27;;;1.40;;
60030;SDS011;45901;47.600;9.890;2022-07-29T03:13:23;1.90;;;1.40;;
60030;SDS011;45901;47.600;9.890;2022-07-29T03:15:52;2.93;;;1.60;;
60030;SDS011;45901;47.600;9.890;2022-07-29T03:18:21;2.40;;;1.57;;
60030;SDS011;45901;47.600;9.890;2022-07-29T03:20:48;11.17;;;2.30;;
60030;SDS011;45901;47.600;9.890;2022-07-29T03:23:18;2.50;;;1.57;;
60030;SDS011;45901;47.600;9.890;2022-07-29T03:25:47;2.47;;;1.57;;
60030;SDS011;45901;47.600;9.890;2022-07-29T03:28:15;1.60;;;1.13;;
60030;SDS011;45901;47.600;9.890;2022-07-29T03:30:42;2.90;;;1.50;;
60030;SDS011;45901;47.600;9.890;2022-07-29T03:33:09;2.03;;;1.70;;
60030;SDS011;45901;47.600;9.890;2022-07-29T03:35:38;1.30;;;1.20;;
60030;SDS011;45901;47.600;9.890;2022-07-29T03:38:05;1.23;;;1.00;;
60030;SDS011;45901;47.600;9.890;2022-07-29T03:40:33;3.73;;;1.80;;
60030;SDS011;45901;47.600;9.890;2022-07-29T03:43:06;2.10;;;1.43;;
60030;SDS011;45901;47.600;9.890;2022-07-29T03:45:36;3.00;;;1.60;;
60030;SDS011;45901;47.600;9.890;2022-07-29T03:48:05;3.13;;;1.20;;
60030;SDS011;45901;47.600;9.890;2022-07-29T03:50:40;1.97;;;1.37;;
60030;SDS011;45901;47.600;9.890;2022-07-29T03:53:07;4.37;;;1.30;;
60030;SDS011;45901;47.600;9.890;2022-07-29T03:55:36;2.20;;;1.30;;
60030;SDS011;45901;47.600;9.890;2022-07-29T03:58:11;2.77;;;1.27;;
60030;SDS011;45901;47.600;9.890;2022-07-29T04:00:41;2.87;;;1.20;;
60030;SDS011;45901;47.600;9.890;2022-07-29T04:03:09;1.27;;;1.17;;
60030;SDS011;45901;47.600;9.890;2022-07-29T04:05:36;2.37;;;1.23;;
60030;SDS011;45901;47.600;9.890;2022-07-29T04:08:05;1.57;;;1.30;;
60030;SDS011;45901;47.600;9.890;2022-07-29T04:10:32;3.77;;;0.90;;
60030;SDS011;45901;47.600;9.890;2022-07-29T04:12:59;3.60;;;1.03;;
60030;SDS011;45901;47.600;9.890;2022-07-29T04:15:27;1.00;;;0.90;;
60030;SDS011;45901;47.600;9.890;2022-07-29T04:17:56;1.33;;;0.90;;
60030;SDS011;45901;47.600;9.890;2022-07-29T04:20:24;4.03;;;0.80;;
60030;SDS011;45901;47.600;9.890;2022-07-29T04:22:51;1.00;;;0.80;;
60030;SDS011;45901;47.600;9.890;2022-07-29T04:25:19;2.10;;;1.00;;
60030;SDS011;45901;47.600;9.890;2022-07-29T04:27:47;3.27;;;1.20;;
60030;SDS011;45901;47.600;9.890;2022-07-29T04:30:26;8.63;;;2.10;;
60030;SDS011;45901;47.600;9.890;2022-07-29T04:32:54;7.40;;;1.97;;
60030;SDS011;45901;47.600;9.890;2022-07-29T04:35:21;2.73;;;1.33;;
60030;SDS011;45901;47.600;9.890;2022-07-29T04:37:48;2.10;;;1.33;;
60030;SDS011;45901;47.600;9.890;2022-07-29T04:40:16;2.80;;;1.27;;
60030;SDS011;45901;47.600;9.890;2022-07-29T04:42:44;1.23;;;1.00;;
60030;SDS011;45901;47.600;9.890;2022-07-29T04:45:12;3.13;;;1.00;;
60030;SDS011;45901;47.600;9.890;2022-07-29T04:47:39;1.53;;;1.10;;
60030;SDS011;45901;47.600;9.890;2022-07-29T04:50:07;1.17;;;0.90;;
60030;SDS011;45901;47.600;9.890;2022-07-29T04:52:35;1.47;;;1.17;;
60030;SDS011;45901;47.600;9.890;2022-07-29T04:55:02;3.33;;;1.00;;
60030;SDS011;45901;47.600;9.890;2022-07-29T04:57:31;1.50;;;1.17;;
60030;SDS011;45901;47.600;9.890;2022-07-29T05:00:00;2.80;;;1.00;;
60030;SDS011;45901;47.600;9.890;2022-07-29T05:02:28;2.23;;;1.17;;
60030;SDS011;45901;47.600;9.890;2022-07-29T05:04:56;2.27;;;1.00;;
60030;SDS011;45901;47.600;9.890;2022-07-29T05:07:23;2.63;;;1.00;;
60030;SDS011;45901;47.600;9.890;2022-07-29T05:09:50;3.27;;;1.03;;
60030;SDS011;45901;47.600;9.890;2022-07-29T05:12:18;3.97;;;1.37;;
60030;SDS011;45901;47.600;9.890;2022-07-29T05:14:46;2.80;;;1.10;;
60030;SDS011;45901;47.600;9.890;2022-07-29T05:17:15;3.23;;;1.07;;
60030;SDS011;45901;47.600;9.890;2022-07-29T05:19:42;1.90;;;1.17;;
60030;SDS011;45901;47.600;9.890;2022-07-29T05:22:11;3.63;;;0.77;;
60030;SDS011;45901;47.600;9.890;2022-07-29T05:24:38;4.33;;;1.00;;
60030;SDS011;45901;47.600;9.890;2022-07-29T05:27:05;1.13;;;1.00;;
60030;SDS011;45901;47.600;9.890;2022-07-29T05:29:32;2.40;;;0.90;;
60030;SDS011;45901;47.600;9.890;2022-07-29T05:32:03;3.80;;;1.13;;
60030;SDS011;45901;47.600;9.890;2022-07-29T05:34:32;2.60;;;1.00;;
60030;SDS011;45901;47.600;9.890;2022-07-29T05:36:59;1.37;;;0.90;;
60030;SDS011;45901;47.600;9.890;2022-07-29T05:39:27;3.53;;;1.60;;
60030;SDS011;45901;47.600;9.890;2022-07-29T05:41:54;3.67;;;1.10;;
60030;SDS011;45901;47.600;9.890;2022-07-29T05:44:21;1.20;;;0.80;;
60030;SDS011;45901;47.600;9.890;2022-07-29T05:46:48;2.47;;;0.97;;
60030;SDS011;45901;47.600;9.890;2022-07-29T05:49:16;2.50;;;1.00;;
60030;SDS011;45901;47.600;9.890;2022-07-29T05:51:44;1.60;;;0.80;;
60030;SDS011;45901;47.600;9.890;2022-07-29T05:54:12;4.53;;;1.03;;
60030;SDS011;45901;47.600;9.890;2022-07-29T05:56:42;2.87;;;1.10;;
60030;SDS011;45901;47.600;9.890;2022-07-29T05:59:09;1.17;;;0.83;;
60030;SDS011;45901;47.600;9.890;2022-07-29T06:01:36;2.57;;;0.90;;
60030;SDS011;45901;47.600;9.890;2022-07-29T06:04:05;2.70;;;0.90;;
60030;SDS011;45901;47.600;9.890;2022-07-29T06:06:32;2.03;;;1.20;;
60030;SDS011;45901;47.600;9.890;2022-07-29T06:09:02;3.53;;;1.00;;
60030;SDS011;45901;47.600;9.890;2022-07-29T06:11:29;1.63;;;1.03;;
60030;SDS011;45901;47.600;9.890;2022-07-29T06:13:59;3.43;;;0.90;;
60030;SDS011;45901;47.600;9.890;2022-07-29T06:16:28;2.90;;;0.90;;
60030;SDS011;45901;47.600;9.890;2022-07-29T06:18:55;5.13;;;1.30;;
60030;SDS011;45901;47.600;9.890;2022-07-29T06:21:22;2.10;;;0.90;;
60030;SDS011;45901;47.600;9.890;2022-07-29T06:23:49;3.20;;;1.10;;
60030;SDS011;45901;47.600;9.890;2022-07-29T06:26:18;1.33;;;0.90;;
60030;SDS011;45901;47.600;9.890;2022-07-29T06:28:45;1.63;;;1.13;;
60030;SDS011;45901;47.600;9.890;2022-07-29T06:31:12;3.03;;;1.07;;
60030;SDS011;45901;47.600;9.890;2022-07-29T06:33:39;1.47;;;1.07;;
60030;SDS011;45901;47.600;9.890;2022-07-29T06:36:23;1.13;;;1.03;;
60030;SDS011;45901;47.600;9.890;2022-07-29T06:39:03;1.50;;;0.90;;
60030;SDS011;45901;47.600;9.890;2022-07-29T06:57:47;1.00;;;0.90;;
60030;SDS011;45901;47.600;9.890;2022-07-29T07:00:15;1.77;;;1.17;;
60030;SDS011;45901;47.600;9.890;2022-07-29T07:02:43;3.23;;;1.23;;
60030;SDS011;45901;47.600;9.890;2022-07-29T07:05:10;1.50;;;1.30;;
60030;SDS011;45901;47.600;9.890;2022-07-29T07:07:37;1.77;;;1.00;;
60030;SDS011;45901;47.600;9.890;2022-07-29T07:10:06;1.43;;;1.00;;
60030;SDS011;45901;47.600;9.890;2022-07-29T07:12:34;2.03;;;1.00;;
60030;SDS011;45901;47.600;9.890;2022-07-29T07:15:02;1.73;;;1.00;;
60030;SDS011;45901;47.600;9.890;2022-07-29T07:17:30;1.87;;;1.00;;
60030;SDS011;45901;47.600;9.890;2022-07-29T07:19:57;5.00;;;1.03;;
60030;SDS011;45901;47.600;9.890;2022-07-29T07:22:24;1.43;;;1.00;;
60030;SDS011;45901;47.600;9.890;2022-07-29T07:24:52;1.73;;;0.97;;
60030;SDS011;45901;47.600;9.890;2022-07-29T07:27:20;1.77;;;1.10;;
60030;SDS011;45901;47.600;9.890;2022-07-29T07:29:47;1.90;;;1.13;;
60030;SDS011;45901;47.600;9.890;2022-07-29T07:32:15;3.63;;;1.40;;
60030;SDS011;45901;47.600;9.890;2022-07-29T07:34:42;1.37;;;0.90;;
60030;SDS011;45901;47.600;9.890;2022-07-29T07:37:13;1.30;;;1.00;;
60030;SDS011;45901;47.600;9.890;2022-07-29T07:39:42;2.47;;;1.10;;
60030;SDS011;45901;47.600;9.890;2022-07-29T07:42:09;2.40;;;1.13;;
60030;SDS011;45901;47.600;9.890;2022-07-29T07:44:39;4.60;;;1.50;;
60030;SDS011;45901;47.600;9.890;2022-07-29T07:47:10;2.90;;;1.53;;
60030;SDS011;45901;47.600;9.890;2022-07-29T07:49:38;5.03;;;1.73;;
60030;SDS011;45901;47.600;9.890;2022-07-29T07:52:15;2.03;;;1.10;;
60030;SDS011;45901;47.600;9.890;2022-07-29T07:54:57;3.97;;;1.50;;
60030;SDS011;45901;47.600;9.890;2022-07-29T08:03:34;2.53;;;1.27;;
60030;SDS011;45901;47.600;9.890;2022-07-29T08:06:04;0.80;;;0.80;;
60030;SDS011;45901;47.600;9.890;2022-07-29T08:08:31;2.00;;;1.20;;
60030;SDS011;45901;47.600;9.890;2022-07-29T08:10:59;1.90;;;1.10;;
60030;SDS011;45901;47.600;9.890;2022-07-29T08:13:27;1.77;;;1.10;;
60030;SDS011;45901;47.600;9.890;2022-07-29T08:15:55;2.40;;;1.10;;
60030;SDS011;45901;47.600;9.890;2022-07-29T08:18:29;3.40;;;1.20;;
60030;SDS011;45901;47.600;9.890;2022-07-29T08:20:59;2.57;;;1.23;;
60030;SDS011;45901;47.600;9.890;2022-07-29T08:23:31;2.67;;;1.20;;
60030;SDS011;45901;47.600;9.890;2022-07-29T08:26:03;1.77;;;0.97;;
60030;SDS011;45901;47.600;9.890;2022-07-29T08:28:35;1.80;;;1.30;;
60030;SDS011;45901;47.600;9.890;2022-07-29T08:31:03;2.87;;;1.40;;
60030;SDS011;45901;47.600;9.890;2022-07-29T08:33:32;2.60;;;1.33;;
60030;SDS011;45901;47.600;9.890;2022-07-29T08:35:59;3.23;;;1.30;;
60030;SDS011;45901;47.600;9.890;2022-07-29T08:38:28;2.00;;;1.30;;
60030;SDS011;45901;47.600;9.890;2022-07-29T08:40:55;7.10;;;1.30;;
60030;SDS011;45901;47.600;9.890;2022-07-29T08:43:22;3.73;;;1.23;;
60030;SDS011;45901;47.600;9.890;2022-07-29T08:45:50;1.37;;;1.27;;
60030;SDS011;45901;47.600;9.890;2022-07-29T08:48:18;3.07;;;1.60;;
60030;SDS011;45901;47.600;9.890;2022-07-29T08:50:49;3.43;;;1.30;;
60030;SDS011;45901;47.600;9.890;2022-07-29T08:53:20;2.00;;;1.50;;
60030;SDS011;45901;47.600;9.890;2022-07-29T08:55:51;3.53;;;1.73;;
60030;SDS011;45901;47.600;9.890;2022-07-29T08:58:19;2.27;;;1.30;;
60030;SDS011;45901;47.600;9.890;2022-07-29T09:00:48;3.13;;;1.20;;
60030;SDS011;45901;47.600;9.890;2022-07-29T09:03:18;2.70;;;1.10;;
60030;SDS011;45901;47.600;9.890;2022-07-29T09:05:46;3.53;;;1.17;;
60030;SDS011;45901;47.600;9.890;2022-07-29T09:08:16;2.43;;;1.30;;
60030;SDS011;45901;47.600;9.890;2022-07-29T09:10:43;1.43;;;1.23;;
60030;SDS011;45901;47.600;9.890;2022-07-29T09:13:11;1.90;;;1.10;;
60030;SDS011;45901;47.600;9.890;2022-07-29T09:15:38;2.87;;;1.20;;
60030;SDS011;45901;47.600;9.890;2022-07-29T09:18:05;3.03;;;1.27;;
60030;SDS011;45901;47.600;9.890;2022-07-29T09:20:33;2.40;;;1.37;;
60030;SDS011;45901;47.600;9.890;2022-07-29T09:23:15;3.17;;;1.50;;
60030;SDS011;45901;47.600;9.890;2022-07-29T09:25:42;1.67;;;1.30;;
60030;SDS011;45901;47.600;9.890;2022-07-29T09:28:10;2.57;;;1.30;;
60030;SDS011;45901;47.600;9.890;2022-07-29T09:30:49;3.07;;;1.47;;
60030;SDS011;45901;47.600;9.890;2022-07-29T09:33:34;2.60;;;1.20;;
60030;SDS011;45901;47.600;9.890;2022-07-29T09:36:04;4.73;;;1.20;;
60030;SDS011;45901;47.600;9.890;2022-07-29T09:38:34;3.07;;;1.10;;
60030;SDS011;45901;47.600;9.890;2022-07-29T09:41:03;2.30;;;1.27;;
60030;SDS011;45901;47.600;9.890;2022-07-29T09:43:33;3.23;;;1.30;;
60030;SDS011;45901;47.600;9.890;2022-07-29T09:46:09;0.77;;;0.77;;
60030;SDS011;45901;47.600;9.890;2022-07-29T09:48:39;2.27;;;1.07;;
60030;SDS011;45901;47.600;9.890;2022-07-29T09:51:16;2.20;;;1.23;;
60030;SDS011;45901;47.600;9.890;2022-07-29T09:53:44;1.70;;;1.13;;
60030;SDS011;45901;47.600;9.890;2022-07-29T09:56:11;2.97;;;1.30;;
60030;SDS011;45901;47.600;9.890;2022-07-29T09:58:39;4.23;;;1.17;;
60030;SDS011;45901;47.600;9.890;2022-07-29T10:01:06;4.10;;;1.30;;
60030;SDS011;45901;47.600;9.890;2022-07-29T10:03:33;2.10;;;1.20;;
60030;SDS011;45901;47.600;9.890;2022-07-29T10:06:18;2.03;;;1.37;;
60030;SDS011;45901;47.600;9.890;2022-07-29T10:08:45;3.17;;;1.40;;
60030;SDS011;45901;47.600;9.890;2022-07-29T10:11:15;1.30;;;1.20;;
60030;SDS011;45901;47.600;9.890;2022-07-29T10:13:44;3.73;;;1.60;;
60030;SDS011;45901;47.600;9.890;2022-07-29T10:16:13;3.90;;;1.40;;
60030;SDS011;45901;47.600;9.890;2022-07-29T10:18:42;1.90;;;1.07;;
60030;SDS011;45901;47.600;9.890;2022-07-29T10:21:13;1.30;;;1.10;;
60030;SDS011;45901;47.600;9.890;2022-07-29T10:23:40;3.00;;;1.30;;
60030;SDS011;45901;47.600;9.890;2022-07-29T10:26:08;2.23;;;1.53;;
60030;SDS011;45901;47.600;9.890;2022-07-29T10:28:37;3.47;;;1.50;;
60030;SDS011;45901;47.600;9.890;2022-07-29T10:31:04;3.80;;;1.30;;
60030;SDS011;45901;47.600;9.890;2022-07-29T10:33:39;3.60;;;1.40;;
60030;SDS011;45901;47.600;9.890;2022-07-29T10:36:35;1.60;;;1.20;;
60030;SDS011;45901;47.600;9.890;2022-07-29T10:39:17;3.30;;;1.07;;
60030;SDS011;45901;47.600;9.890;2022-07-29T10:42:02;2.13;;;1.50;;
60030;SDS011;45901;47.600;9.890;2022-07-29T10:44:42;2.43;;;1.40;;
60030;SDS011;45901;47.600;9.890;2022-07-29T10:47:19;4.33;;;1.40;;
60030;SDS011;45901;47.600;9.890;2022-07-29T10:49:54;2.60;;;1.47;;
60030;SDS011;45901;47.600;9.890;2022-07-29T10:52:25;2.63;;;1.53;;
60030;SDS011;45901;47.600;9.890;2022-07-29T10:55:31;1.70;;;1.50;;
60030;SDS011;45901;47.600;9.890;2022-07-29T10:58:11;3.30;;;1.63;;
60030;SDS011;45901;47.600;9.890;2022-07-29T11:00:40;2.67;;;1.20;;
60030;SDS011;45901;47.600;9.890;2022-07-29T11:03:07;2.47;;;1.70;;
60030;SDS011;45901;47.600;9.890;2022-07-29T11:08:23;3.70;;;1.57;;
60030;SDS011;45901;47.600;9.890;2022-07-29T11:10:51;2.37;;;1.40;;
60030;SDS011;45901;47.600;9.890;2022-07-29T11:13:44;1.97;;;1.60;;
60030;SDS011;45901;47.600;9.890;2022-07-29T11:16:20;3.73;;;1.77;;
60030;SDS011;45901;47.600;9.890;2022-07-29T11:21:49;3.23;;;1.20;;
60030;SDS011;45901;47.600;9.890;2022-07-29T11:24:20;1.70;;;1.17;;
60030;SDS011;45901;47.600;9.890;2022-07-29T11:27:09;2.83;;;1.20;;
60030;SDS011;45901;47.600;9.890;2022-07-29T11:29:48;2.93;;;1.10;;
60030;SDS011;45901;47.600;9.890;2022-07-29T11:32:21;3.07;;;1.30;;
60030;SDS011;45901;47.600;9.890;2022-07-29T11:34:49;4.17;;;1.47;;
60030;SDS011;45901;47.600;9.890;2022-07-29T11:37:39;2.27;;;1.20;;
60030;SDS011;45901;47.600;9.890;2022-07-29T11:40:15;4.07;;;1.07;;
60030;SDS011;45901;47.600;9.890;2022-07-29T11:42:44;1.90;;;1.10;;
60030;SDS011;45901;47.600;9.890;2022-07-29T11:45:22;1.70;;;1.00;;
60030;SDS011;45901;47.600;9.890;2022-07-29T11:47:58;1.73;;;1.10;;
60030;SDS011;45901;47.600;9.890;2022-07-29T11:50:30;1.87;;;1.10;;
60030;SDS011;45901;47.600;9.890;2022-07-29T11:53:03;2.90;;;1.30;;
60030;SDS011;45901;47.600;9.890;2022-07-29T11:55:39;1.77;;;1.03;;
60030;SDS011;45901;47.600;9.890;2022-07-29T11:58:07;0.90;;;0.80;;
60030;SDS011;45901;47.600;9.890;2022-07-29T12:00:35;1.70;;;1.00;;
60030;SDS011;45901;47.600;9.890;2022-07-29T12:03:05;1.30;;;0.97;;
60030;SDS011;45901;47.600;9.890;2022-07-29T12:05:34;1.40;;;1.00;;
60030;SDS011;45901;47.600;9.890;2022-07-29T12:08:09;2.53;;;1.07;;
60030;SDS011;45901;47.600;9.890;2022-07-29T12:10:46;2.23;;;1.30;;
60030;SDS011;45901;47.600;9.890;2022-07-29T12:13:15;3.37;;;1.37;;
60030;SDS011;45901;47.600;9.890;2022-07-29T12:15:51;1.83;;;1.30;;
60030;SDS011;45901;47.600;9.890;2022-07-29T12:18:19;2.07;;;1.30;;
60030;SDS011;45901;47.600;9.890;2022-07-29T12:20:47;4.70;;;1.33;;
60030;SDS011;45901;47.600;9.890;2022-07-29T12:23:22;1.30;;;0.70;;
60030;SDS011;45901;47.600;9.890;2022-07-29T12:25:50;1.63;;;0.90;;
60030;SDS011;45901;47.600;9.890;2022-07-29T12:28:17;1.63;;;1.00;;
60030;SDS011;45901;47.600;9.890;2022-07-29T12:30:47;1.10;;;0.80;;
60030;SDS011;45901;47.600;9.890;2022-07-29T12:33:17;1.90;;;1.10;;
60030;SDS011;45901;47.600;9.890;2022-07-29T12:35:48;1.23;;;0.80;;
60030;SDS011;45901;47.600;9.890;2022-07-29T12:38:19;1.67;;;0.80;;
60030;SDS011;45901;47.600;9.890;2022-07-29T12:40:47;1.37;;;1.10;;
60030;SDS011;45901;47.600;9.890;2022-07-29T12:43:18;2.27;;;0.73;;
60030;SDS011;45901;47.600;9.890;2022-07-29T12:45:47;2.57;;;0.80;;
60030;SDS011;45901;47.600;9.890;2022-07-29T12:48:17;6.57;;;0.93;;
60030;SDS011;45901;47.600;9.890;2022-07-29T12:50:59;2.27;;;0.97;;
60030;SDS011;45901;47.600;9.890;2022-07-29T12:53:28;2.33;;;1.00;;
60030;SDS011;45901;47.600;9.890;2022-07-29T12:55:56;1.10;;;1.00;;
60030;SDS011;45901;47.600;9.890;2022-07-29T12:58:33;1.30;;;0.82;;
60030;SDS011;45901;47.600;9.890;2022-07-29T13:01:05;1.98;;;0.90;;
60030;SDS011;45901;47.600;9.890;2022-07-29T13:03:46;0.70;;;0.70;;
60030;SDS011;45901;47.600;9.890;2022-07-29T13:06:27;1.00;;;0.70;;
60030;SDS011;45901;47.600;9.890;2022-07-29T13:09:01;1.75;;;1.10;;
60030;SDS011;45901;47.600;9.890;2022-07-29T13:11:32;1.75;;;1.02;;
60030;SDS011;45901;47.600;9.890;2022-07-29T13:15:13;1.15;;;0.82;;
60030;SDS011;45901;47.600;9.890;2022-07-29T13:17:46;2.45;;;1.02;;
60030;SDS011;45901;47.600;9.890;2022-07-29T13:20:25;1.60;;;0.75;;
60030;SDS011;45901;47.600;9.890;2022-07-29T13:22:55;1.40;;;0.90;;
60030;SDS011;45901;47.600;9.890;2022-07-29T13:25:24;1.25;;;0.80;;
60030;SDS011;45901;47.600;9.890;2022-07-29T13:27:52;1.58;;;1.00;;
60030;SDS011;45901;47.600;9.890;2022-07-29T13:30:22;2.73;;;1.20;;
60030;SDS011;45901;47.600;9.890;2022-07-29T13:32:50;2.63;;;1.30;;
60030;SDS011;45901;47.600;9.890;2022-07-29T13:35:18;2.00;;;0.90;;
60030;SDS011;45901;47.600;9.890;2022-07-29T13:37:46;1.67;;;0.90;;
60030;SDS011;45901;47.600;9.890;2022-07-29T13:40:13;3.93;;;1.17;;
60030;SDS011;45901;47.600;9.890;2022-07-29T13:42:41;2.43;;;1.37;;
60030;SDS011;45901;47.600;9.890;2022-07-29T13:45:08;1.50;;;1.10;;
60030;SDS011;45901;47.600;9.890;2022-07-29T13:47:38;2.47;;;1.30;;
60030;SDS011;45901;47.600;9.890;2022-07-29T13:54:50;1.27;;;1.00;;
60030;SDS011;45901;47.600;9.890;2022-07-29T13:57:17;3.37;;;1.50;;
60030;SDS011;45901;47.600;9.890;2022-07-29T13:59:44;2.13;;;1.23;;
60030;SDS011;45901;47.600;9.890;2022-07-29T14:02:11;5.80;;;2.37;;
60030;SDS011;45901;47.600;9.890;2022-07-29T14:05:14;6.10;;;1.70;;
60030;SDS011;45901;47.600;9.890;2022-07-29T14:07:49;3.33;;;1.60;;
60030;SDS011;45901;47.600;9.890;2022-07-29T14:10:24;5.70;;;1.67;;
60030;SDS011;45901;47.600;9.890;2022-07-29T14:12:52;1.50;;;1.03;;
60030;SDS011;45901;47.600;9.890;2022-07-29T14:15:19;2.20;;;1.17;;
60030;SDS011;45901;47.600;9.890;2022-07-29T14:17:46;2.17;;;1.10;;
60030;SDS011;45901;47.600;9.890;2022-07-29T14:20:19;2.77;;;1.03;;
60030;SDS011;45901;47.600;9.890;2022-07-29T14:23:32;1.70;;;1.10;;
60030;SDS011;45901;47.600;9.890;2022-07-29T14:27:23;1.27;;;1.00;;
60030;SDS011;45901;47.600;9.890;2022-07-29T14:33:46;1.73;;;1.17;;
60030;SDS011;45901;47.600;9.890;2022-07-29T14:36:15;2.07;;;1.20;;
60030;SDS011;45901;47.600;9.890;2022-07-29T14:38:42;2.97;;;1.10;;
60030;SDS011;45901;47.600;9.890;2022-07-29T14:47:42;3.67;;;1.40;;
60030;SDS011;45901;47.600;9.890;2022-07-29T14:50:17;2.53;;;1.30;;
60030;SDS011;45901;47.600;9.890;2022-07-29T14:55:58;3.00;;;1.50;;
60030;SDS011;45901;47.600;9.890;2022-07-29T14:58:46;6.63;;;1.60;;
60030;SDS011;45901;47.600;9.890;2022-07-29T15:01:51;2.77;;;1.50;;
60030;SDS011;45901;47.600;9.890;2022-07-29T15:04:22;1.80;;;1.37;;
60030;SDS011;45901;47.600;9.890;2022-07-29T15:06:49;4.07;;;1.80;;
60030;SDS011;45901;47.600;9.890;2022-07-29T15:09:21;3.60;;;1.60;;
60030;SDS011;45901;47.600;9.890;2022-07-29T15:11:48;2.13;;;1.43;;
60030;SDS011;45901;47.600;9.890;2022-07-29T15:14:15;3.03;;;1.50;;
60030;SDS011;45901;47.600;9.890;2022-07-29T15:16:42;4.17;;;1.53;;
60030;SDS011;45901;47.600;9.890;2022-07-29T15:19:20;2.70;;;1.43;;
60030;SDS011;45901;47.600;9.890;2022-07-29T15:21:47;2.23;;;1.33;;
60030;SDS011;45901;47.600;9.890;2022-07-29T15:26:23;1.60;;;1.37;;
60030;SDS011;45901;47.600;9.890;2022-07-29T15:28:19;3.97;;;1.30;;
60030;SDS011;45901;47.600;9.890;2022-07-29T15:30:46;3.17;;;1.40;;
60030;SDS011;45901;47.600;9.890;2022-07-29T15:33:16;1.87;;;1.43;;
60030;SDS011;45901;47.600;9.890;2022-07-29T15:35:43;1.93;;;1.30;;
60030;SDS011;45901;47.600;9.890;2022-07-29T15:38:10;1.70;;;1.50;;
60030;SDS011;45901;47.600;9.890;2022-07-29T15:40:38;3.23;;;1.53;;
60030;SDS011;45901;47.600;9.890;2022-07-29T15:43:06;3.33;;;2.00;;
60030;SDS011;45901;47.600;9.890;2022-07-29T15:45:38;2.27;;;1.70;;
60030;SDS011;45901;47.600;9.890;2022-07-29T15:48:30;2.20;;;1.83;;
60030;SDS011;45901;47.600;9.890;2022-07-29T15:50:58;3.33;;;1.77;;
60030;SDS011;45901;47.600;9.890;2022-07-29T15:53:26;3.13;;;2.13;;
60030;SDS011;45901;47.600;9.890;2022-07-29T15:55:53;3.07;;;2.07;;
60030;SDS011;45901;47.600;9.890;2022-07-29T15:58:21;5.70;;;2.77;;
60030;SDS011;45901;47.600;9.890;2022-07-29T16:00:49;3.20;;;2.27;;